createdAt,value
2023-02-27T00:00:01.358Z,5.45
2023-02-27T00:02:28.214Z,6.85
2023-02-27T00:04:55.041Z,5.15
2023-02-27T00:07:21.831Z,5.68
2023-02-27T00:09:48.619Z,9.18
2023-02-27T00:12:15.523Z,5.82
2023-02-27T00:14:42.340Z,7.30
2023-02-27T00:17:09.195Z,6.23
2023-02-27T00:19:36.188Z,6.35
2023-02-27T00:22:02.961Z,5.45
2023-02-27T00:24:30.250Z,5.63
2023-02-27T00:26:56.977Z,9.38
2023-02-27T00:29:23.769Z,4.45
2023-02-27T00:31:50.692Z,6.00
2023-02-27T00:34:17.639Z,6.13
2023-02-27T00:36:44.425Z,6.93
2023-02-27T00:39:11.214Z,5.97
2023-02-27T00:41:37.983Z,7.55
2023-02-27T00:44:04.988Z,5.30
2023-02-27T00:46:31.800Z,5.45
2023-02-27T00:48:58.573Z,6.05
2023-02-27T00:51:25.725Z,7.78
2023-02-27T00:53:52.688Z,6.30
2023-02-27T00:56:19.552Z,6.22
2023-02-27T00:58:46.381Z,9.10
2023-02-27T01:01:13.347Z,8.68
2023-02-27T01:03:40.107Z,7.10
2023-02-27T01:06:07.397Z,5.82
2023-02-27T01:08:34.400Z,8.20
2023-02-27T01:11:01.225Z,7.00
2023-02-27T01:13:28.060Z,8.30
2023-02-27T01:15:54.947Z,6.20
2023-02-27T01:18:21.715Z,8.00
2023-02-27T01:20:55.421Z,6.28
2023-02-27T01:23:23.398Z,6.87
2023-02-27T01:25:50.420Z,8.30
2023-02-27T01:28:17.303Z,7.82
2023-02-27T01:30:44.301Z,5.68
2023-02-27T01:33:11.122Z,7.25
2023-02-27T01:35:38.012Z,6.57
2023-02-27T01:38:04.845Z,10.57
2023-02-27T01:40:36.490Z,8.07
2023-02-27T01:43:05.416Z,4.60
2023-02-27T01:45:33.315Z,6.07
2023-02-27T01:48:23.959Z,7.00
2023-02-27T01:50:59.900Z,8.57
2023-02-27T01:53:28.675Z,6.70
2023-02-27T01:56:00.505Z,8.07
2023-02-27T01:58:27.781Z,8.45
2023-02-27T02:00:55.514Z,9.20
2023-02-27T02:03:41.205Z,5.57
2023-02-27T02:06:08.767Z,4.78
2023-02-27T02:08:41.822Z,5.90
2023-02-27T02:11:09.259Z,4.22
2023-02-27T02:13:37.947Z,5.45
2023-02-27T02:16:33.083Z,5.20
2023-02-27T02:19:29.205Z,6.20
2023-02-27T02:22:42.873Z,8.35
2023-02-27T02:25:18.256Z,6.80
2023-02-27T02:27:56.800Z,6.30
2023-02-27T02:30:42.464Z,6.10
2023-02-27T02:33:36.198Z,6.38
2023-02-27T02:36:40.508Z,7.85
2023-02-27T02:39:32.821Z,5.57
2023-02-27T02:42:22.765Z,4.93
2023-02-27T02:44:57.127Z,5.65
2023-02-27T02:47:44.977Z,7.50
2023-02-27T02:50:14.884Z,7.85
2023-02-27T02:53:06.447Z,5.38
2023-02-27T02:55:38.007Z,4.50
2023-02-27T02:58:10.207Z,7.45
2023-02-27T03:00:46.811Z,7.57
2023-02-27T03:03:21.558Z,11.40
2023-02-27T03:05:54.616Z,9.40
2023-02-27T03:08:27.557Z,6.82
2023-02-27T03:10:58.700Z,7.60
2023-02-27T03:13:40.165Z,6.68
2023-02-27T03:16:28.079Z,5.27
2023-02-27T03:19:03.670Z,7.93
2023-02-27T03:21:36.060Z,4.95
2023-02-27T03:24:07.698Z,10.32
2023-02-27T03:26:38.846Z,6.72
2023-02-27T03:29:13.925Z,8.00
2023-02-27T03:31:44.427Z,9.82
2023-02-27T03:34:23.859Z,8.00
2023-02-27T03:37:17.198Z,9.68
2023-02-27T03:39:49.092Z,6.28
2023-02-27T03:42:29.138Z,6.30
2023-02-27T03:45:04.950Z,11.23
2023-02-27T03:47:33.322Z,8.63
2023-02-27T03:50:00.374Z,10.40
2023-02-27T03:52:29.382Z,9.10
2023-02-27T03:55:04.527Z,8.30
2023-02-27T03:57:34.122Z,8.55
2023-02-27T04:00:01.208Z,7.13
2023-02-27T04:02:28.753Z,6.85
2023-02-27T04:04:55.566Z,6.60
2023-02-27T04:07:48.661Z,7.40
2023-02-27T04:10:55.732Z,9.37
2023-02-27T04:13:49.666Z,7.70
2023-02-27T04:16:45.980Z,8.68
2023-02-27T04:19:27.650Z,9.80
2023-02-27T04:22:16.947Z,9.98
2023-02-27T04:25:22.283Z,7.70
2023-02-27T04:28:05.461Z,8.40
2023-02-27T04:30:42.427Z,8.23
2023-02-27T04:33:25.450Z,6.70
2023-02-27T04:36:02.925Z,10.90
2023-02-27T04:38:40.027Z,15.25
2023-02-27T04:41:18.931Z,14.20
2023-02-27T04:43:47.677Z,12.65
2023-02-27T04:46:17.659Z,12.65
2023-02-27T04:48:59.004Z,10.27
2023-02-27T04:51:31.809Z,17.00
2023-02-27T04:54:11.182Z,21.95
2023-02-27T04:57:02.099Z,16.40
2023-02-27T04:59:33.725Z,12.43
2023-02-27T05:02:07.408Z,12.05
2023-02-27T05:04:38.190Z,13.40
2023-02-27T05:07:08.183Z,14.68
2023-02-27T05:09:43.761Z,12.07
2023-02-27T05:12:21.701Z,9.10
2023-02-27T05:14:54.080Z,10.48
2023-02-27T05:17:36.471Z,10.10
2023-02-27T05:20:04.398Z,7.75
2023-02-27T05:22:55.792Z,11.40
2023-02-27T05:25:34.046Z,10.02
2023-02-27T05:28:39.118Z,7.53
2023-02-27T05:31:16.145Z,9.73
2023-02-27T05:33:54.299Z,6.88
2023-02-27T05:36:31.668Z,11.50
2023-02-27T05:39:05.502Z,9.18
2023-02-27T05:41:39.014Z,10.25
2023-02-27T05:44:23.556Z,8.80
2023-02-27T05:46:56.803Z,8.40
2023-02-27T05:49:33.524Z,11.47
2023-02-27T05:52:04.583Z,20.08
2023-02-27T05:54:44.562Z,19.30
2023-02-27T05:57:16.544Z,15.30
2023-02-27T05:59:54.166Z,29.55
2023-02-27T06:02:21.091Z,30.70
2023-02-27T06:04:48.137Z,16.85
2023-02-27T06:07:15.780Z,12.77
2023-02-27T06:09:45.360Z,10.38
2023-02-27T06:12:12.118Z,11.50
2023-02-27T06:14:38.951Z,13.98
2023-02-27T06:17:05.799Z,8.32
2023-02-27T06:19:32.681Z,12.70
2023-02-27T06:21:59.431Z,12.18
2023-02-27T06:24:26.206Z,10.05
2023-02-27T06:26:53.084Z,14.10
2023-02-27T06:29:19.846Z,13.53
2023-02-27T06:31:46.643Z,16.63
2023-02-27T06:34:13.451Z,19.40
2023-02-27T06:36:40.407Z,12.23
2023-02-27T06:39:07.303Z,10.38
2023-02-27T06:41:34.300Z,14.37
2023-02-27T06:44:01.232Z,11.10
2023-02-27T06:46:28.405Z,9.18
2023-02-27T06:48:55.441Z,10.13
2023-02-27T06:51:22.201Z,15.35
2023-02-27T06:53:49.092Z,11.90
2023-02-27T06:56:15.924Z,18.38
2023-02-27T06:58:42.733Z,17.60
2023-02-27T07:01:09.592Z,14.68
2023-02-27T07:03:36.418Z,14.57
2023-02-27T07:06:03.580Z,14.65
2023-02-27T07:08:30.635Z,13.27
2023-02-27T07:10:57.768Z,11.60
2023-02-27T07:13:24.632Z,38.78
2023-02-27T07:15:51.542Z,39.08
2023-02-27T07:18:18.512Z,21.07
2023-02-27T07:20:45.323Z,14.75
2023-02-27T07:23:12.148Z,11.95
2023-02-27T07:25:38.924Z,11.02
2023-02-27T07:28:05.742Z,11.40
2023-02-27T07:30:32.578Z,10.70
2023-02-27T07:32:59.434Z,10.45
2023-02-27T07:35:26.300Z,10.55
2023-02-27T07:37:53.077Z,11.23
2023-02-27T07:40:20.054Z,12.10
2023-02-27T07:42:51.541Z,10.10
2023-02-27T07:45:19.518Z,10.02
2023-02-27T07:47:46.819Z,11.73
2023-02-27T07:50:13.740Z,10.33
2023-02-27T07:52:44.630Z,11.15
2023-02-27T07:55:13.151Z,12.38
2023-02-27T07:57:39.967Z,10.20
2023-02-27T08:00:08.518Z,11.80
2023-02-27T08:02:35.330Z,10.50
2023-02-27T08:05:02.124Z,10.63
2023-02-27T08:07:28.926Z,11.00
2023-02-27T08:09:55.704Z,10.43
2023-02-27T08:12:22.463Z,11.60
2023-02-27T08:14:49.321Z,12.32
2023-02-27T08:17:16.199Z,11.10
2023-02-27T08:19:43.070Z,12.07
2023-02-27T08:22:09.983Z,10.55
2023-02-27T08:24:39.763Z,11.53
2023-02-27T08:27:07.884Z,10.15
2023-02-27T08:29:34.921Z,10.77
2023-02-27T08:32:01.864Z,10.13
2023-02-27T08:34:29.105Z,11.30
2023-02-27T08:36:55.940Z,11.50
2023-02-27T08:39:22.709Z,11.25
2023-02-27T08:41:50.050Z,10.52
2023-02-27T08:44:16.880Z,10.32
2023-02-27T08:46:43.662Z,10.68
2023-02-27T08:49:10.670Z,11.40
2023-02-27T08:51:37.642Z,10.25
2023-02-27T08:54:04.604Z,11.93
2023-02-27T08:56:31.460Z,12.17
2023-02-27T08:58:58.250Z,13.20
2023-02-27T09:01:25.332Z,10.52
2023-02-27T09:03:52.333Z,12.77
2023-02-27T09:06:19.125Z,11.55
2023-02-27T09:08:45.882Z,13.55
2023-02-27T09:11:12.694Z,13.40
2023-02-27T09:13:39.457Z,13.30
2023-02-27T09:16:06.625Z,11.25
2023-02-27T09:18:33.429Z,10.07
2023-02-27T09:21:00.381Z,12.63
2023-02-27T09:23:27.165Z,12.40
2023-02-27T09:25:53.936Z,10.10
2023-02-27T09:28:20.731Z,18.23
2023-02-27T09:30:47.680Z,18.03
2023-02-27T09:33:14.486Z,12.23
2023-02-27T09:35:41.609Z,14.85
2023-02-27T09:38:08.479Z,12.15
2023-02-27T09:40:41.557Z,14.07
2023-02-27T09:43:18.760Z,12.70
2023-02-27T09:45:50.206Z,11.10
2023-02-27T09:48:25.782Z,9.55
2023-02-27T09:50:52.973Z,12.07
2023-02-27T09:53:33.341Z,14.50
2023-02-27T09:56:28.526Z,15.20
2023-02-27T09:59:09.636Z,20.73
2023-02-27T10:01:43.521Z,16.17
2023-02-27T10:04:37.752Z,12.90
2023-02-27T10:07:25.903Z,13.55
2023-02-27T10:09:56.979Z,17.80
2023-02-27T10:12:34.868Z,19.87
2023-02-27T10:15:04.434Z,13.95
2023-02-27T10:17:36.232Z,11.20
2023-02-27T10:20:10.179Z,6.85
2023-02-27T10:22:43.098Z,9.95
2023-02-27T10:25:30.324Z,6.97
2023-02-27T10:28:08.831Z,8.13
2023-02-27T10:30:36.157Z,7.60
2023-02-27T10:33:27.323Z,6.13
2023-02-27T10:35:54.966Z,5.18
2023-02-27T10:38:36.180Z,5.83
2023-02-27T10:41:04.852Z,6.30
2023-02-27T10:43:31.736Z,6.95
2023-02-27T10:46:10.467Z,5.90
2023-02-27T10:48:37.343Z,6.47
2023-02-27T10:51:23.554Z,9.40
2023-02-27T10:53:50.929Z,16.35
2023-02-27T10:56:31.188Z,8.55
2023-02-27T10:59:17.301Z,6.50
2023-02-27T11:01:47.963Z,5.38
2023-02-27T11:04:23.308Z,7.50
2023-02-27T11:06:53.659Z,6.47
2023-02-27T11:09:29.722Z,5.70
2023-02-27T11:12:18.929Z,6.43
2023-02-27T11:15:01.803Z,10.07
2023-02-27T11:17:31.832Z,12.50
2023-02-27T11:20:01.012Z,13.10
2023-02-27T11:22:32.241Z,8.60
2023-02-27T11:25:23.431Z,11.90
2023-02-27T11:27:50.258Z,9.98
2023-02-27T11:30:24.825Z,8.38
2023-02-27T11:32:53.309Z,6.97
2023-02-27T11:35:30.373Z,7.40
2023-02-27T11:38:07.182Z,7.70
2023-02-27T11:40:52.106Z,7.15
2023-02-27T11:43:48.052Z,8.10
2023-02-27T11:46:46.481Z,12.75
2023-02-27T11:49:39.543Z,9.00
2023-02-27T11:52:15.942Z,8.95
2023-02-27T11:54:56.935Z,12.85
2023-02-27T11:57:36.403Z,12.20
2023-02-27T12:00:15.482Z,7.22
2023-02-27T12:03:12.405Z,10.85
2023-02-27T12:05:50.756Z,8.38
2023-02-27T12:08:32.337Z,5.50
2023-02-27T12:11:13.622Z,5.13
2023-02-27T12:13:46.397Z,6.07
2023-02-27T12:16:20.514Z,6.80
2023-02-27T12:18:55.707Z,9.38
2023-02-27T12:21:33.103Z,7.07
2023-02-27T12:24:18.495Z,7.78
2023-02-27T12:26:48.476Z,7.80
2023-02-27T12:29:38.886Z,11.10
2023-02-27T12:32:26.459Z,7.82
2023-02-27T12:34:59.586Z,11.68
2023-02-27T12:37:30.682Z,7.40
2023-02-27T12:40:01.087Z,8.50
2023-02-27T12:42:42.251Z,7.43
2023-02-27T12:45:41.132Z,6.05
2023-02-27T12:48:54.868Z,11.55
2023-02-27T12:51:40.479Z,8.48
2023-02-27T12:54:25.090Z,7.90
2023-02-27T12:57:11.832Z,8.23
2023-02-27T12:59:47.616Z,11.20
2023-02-27T13:02:32.765Z,8.53
2023-02-27T13:05:05.074Z,5.57
2023-02-27T13:08:01.987Z,5.60
2023-02-27T13:10:45.280Z,6.90
2023-02-27T13:13:41.232Z,7.28
2023-02-27T13:16:33.538Z,5.35
2023-02-27T13:19:28.634Z,5.40
2023-02-27T13:22:08.298Z,5.35
2023-02-27T13:24:36.470Z,7.53
2023-02-27T13:27:08.987Z,6.80
2023-02-27T13:29:42.257Z,5.93
2023-02-27T13:32:43.591Z,10.45
2023-02-27T13:35:27.405Z,6.53
2023-02-27T13:38:00.239Z,5.13
2023-02-27T13:40:30.041Z,5.85
2023-02-27T13:42:59.866Z,5.10
2023-02-27T13:45:47.060Z,6.22
2023-02-27T13:48:46.048Z,10.00
2023-02-27T13:51:34.792Z,9.20
2023-02-27T13:54:13.576Z,5.93
2023-02-27T13:56:54.750Z,6.53
2023-02-27T13:59:34.887Z,9.18
2023-02-27T14:02:10.900Z,5.95
2023-02-27T14:04:46.162Z,6.38
2023-02-27T14:07:16.291Z,5.47
2023-02-27T14:09:45.813Z,5.57
2023-02-27T14:12:46.501Z,6.00
2023-02-27T14:15:22.655Z,5.97
2023-02-27T14:18:11.499Z,4.75
2023-02-27T14:20:40.892Z,4.78
2023-02-27T14:23:28.133Z,6.43
2023-02-27T14:26:05.840Z,5.10
2023-02-27T14:29:01.594Z,5.80
2023-02-27T14:31:31.776Z,8.05
2023-02-27T14:34:00.561Z,8.63
2023-02-27T14:36:29.910Z,9.30
2023-02-27T14:38:58.702Z,8.70
2023-02-27T14:41:50.208Z,11.35
2023-02-27T14:44:28.416Z,9.30
2023-02-27T14:46:57.262Z,7.57
2023-02-27T14:49:37.040Z,5.68
2023-02-27T14:52:29.911Z,8.43
2023-02-27T14:55:18.673Z,6.40
2023-02-27T14:57:59.913Z,7.50
2023-02-27T15:00:32.939Z,7.70
2023-02-27T15:03:00.539Z,7.10
2023-02-27T15:05:34.368Z,8.10
2023-02-27T15:08:01.838Z,6.88
2023-02-27T15:10:30.854Z,9.75
2023-02-27T15:13:01.643Z,9.00
2023-02-27T15:15:28.787Z,10.35
2023-02-27T15:17:56.233Z,7.63
2023-02-27T15:20:32.534Z,6.47
2023-02-27T15:23:00.802Z,7.20
2023-02-27T15:25:29.248Z,6.28
2023-02-27T15:28:04.873Z,7.50
2023-02-27T15:30:32.284Z,6.47
2023-02-27T15:33:00.369Z,6.82
2023-02-27T15:35:37.904Z,9.20
2023-02-27T15:38:05.095Z,6.65
2023-02-27T15:40:33.570Z,9.50
2023-02-27T15:43:01.424Z,7.27
2023-02-27T15:45:31.444Z,7.95
2023-02-27T15:47:58.476Z,7.53
2023-02-27T15:50:27.159Z,7.47
2023-02-27T15:53:02.696Z,7.53
2023-02-27T15:55:40.136Z,7.05
2023-02-27T15:58:29.023Z,6.60
2023-02-27T16:01:06.280Z,6.80
2023-02-27T16:03:37.780Z,7.47
2023-02-27T16:06:12.155Z,6.88
2023-02-27T16:08:59.540Z,6.03
2023-02-27T16:11:31.542Z,20.50
2023-02-27T16:13:58.691Z,8.05
2023-02-27T16:16:28.585Z,10.48
2023-02-27T16:18:59.210Z,18.83
2023-02-27T16:21:28.849Z,11.93
2023-02-27T16:24:28.610Z,14.38
2023-02-27T16:26:55.536Z,10.75
2023-02-27T16:29:27.592Z,5.70
2023-02-27T16:31:56.580Z,6.20
2023-02-27T16:34:48.004Z,6.43
2023-02-27T16:37:25.698Z,6.30
2023-02-27T16:39:52.571Z,8.25
2023-02-27T16:42:19.406Z,6.82
2023-02-27T16:44:46.402Z,4.80
2023-02-27T16:47:13.314Z,6.45
2023-02-27T16:49:40.232Z,4.82
2023-02-27T16:52:11.338Z,7.00
2023-02-27T16:54:38.142Z,19.30
2023-02-27T16:57:08.080Z,47.80
2023-02-27T16:59:37.458Z,24.67
2023-02-27T17:02:07.500Z,7.60
2023-02-27T17:04:34.386Z,8.27
2023-02-27T17:07:02.290Z,7.80
2023-02-27T17:09:29.781Z,5.73
2023-02-27T17:11:57.607Z,5.68
2023-02-27T17:14:24.920Z,5.50
2023-02-27T17:16:51.969Z,8.30
2023-02-27T17:19:19.044Z,7.63
2023-02-27T17:21:46.048Z,5.78
2023-02-27T17:24:12.815Z,5.68
2023-02-27T17:26:39.639Z,6.20
2023-02-27T17:29:06.410Z,6.68
2023-02-27T17:31:33.190Z,7.13
2023-02-27T17:33:59.954Z,6.07
2023-02-27T17:36:27.105Z,5.80
2023-02-27T17:38:58.535Z,6.32
2023-02-27T17:41:25.579Z,6.40
2023-02-27T17:43:54.484Z,7.50
2023-02-27T17:46:23.143Z,5.50
2023-02-27T17:48:50.103Z,6.80
2023-02-27T17:51:18.388Z,7.18
2023-02-27T17:53:45.891Z,5.13
2023-02-27T17:56:13.252Z,6.55
2023-02-27T17:58:40.370Z,5.77
2023-02-27T18:01:08.896Z,6.70
2023-02-27T18:03:35.830Z,16.85
2023-02-27T18:06:03.013Z,9.27
2023-02-27T18:08:31.264Z,7.70
2023-02-27T18:10:59.066Z,15.23
2023-02-27T18:13:27.444Z,8.70
2023-02-27T18:15:55.526Z,5.30
2023-02-27T18:18:23.856Z,7.60
2023-02-27T18:21:08.865Z,6.00
2023-02-27T18:23:36.773Z,8.65
2023-02-27T18:26:04.746Z,5.22
2023-02-27T18:28:31.570Z,6.82
2023-02-27T18:30:58.504Z,8.00
2023-02-27T18:33:25.314Z,8.90
2023-02-27T18:35:52.197Z,6.10
2023-02-27T18:38:19.105Z,7.50
2023-02-27T18:40:45.992Z,9.10
2023-02-27T18:43:14.203Z,6.93
2023-02-27T18:45:41.422Z,6.57
2023-02-27T18:48:08.735Z,6.15
2023-02-27T18:50:35.807Z,6.28
2023-02-27T18:53:02.624Z,7.18
2023-02-27T18:55:29.563Z,7.33
2023-02-27T18:57:56.284Z,5.60
2023-02-27T19:00:23.272Z,6.30
2023-02-27T19:02:50.384Z,7.65
2023-02-27T19:05:17.310Z,7.15
2023-02-27T19:07:44.404Z,7.13
2023-02-27T19:10:12.186Z,6.30
2023-02-27T19:12:38.971Z,5.10
2023-02-27T19:15:06.205Z,7.78
2023-02-27T19:17:32.986Z,4.95
2023-02-27T19:19:59.769Z,7.78
2023-02-27T19:22:26.528Z,6.28
2023-02-27T19:24:53.271Z,6.72
2023-02-27T19:27:20.025Z,6.70
2023-02-27T19:29:46.761Z,7.15
2023-02-27T19:32:13.616Z,6.85
2023-02-27T19:34:41.141Z,8.20
2023-02-27T19:37:07.879Z,17.27
2023-02-27T19:39:34.647Z,12.13
2023-02-27T19:42:01.449Z,7.57
2023-02-27T19:44:28.220Z,8.00
2023-02-27T19:46:55.101Z,6.28
2023-02-27T19:49:21.958Z,6.15
2023-02-27T19:51:48.733Z,16.55
2023-02-27T19:54:15.959Z,16.73
2023-02-27T19:56:43.122Z,13.80
2023-02-27T19:59:11.321Z,14.60
2023-02-27T20:01:38.330Z,9.43
2023-02-27T20:04:06.356Z,6.20
2023-02-27T20:06:35.060Z,7.68
2023-02-27T20:09:01.913Z,9.18
2023-02-27T20:11:32.985Z,7.90
2023-02-27T20:14:00.210Z,7.67
2023-02-27T20:16:27.443Z,9.30
2023-02-27T20:18:54.386Z,8.68
2023-02-27T20:21:23.397Z,9.32
2023-02-27T20:23:51.231Z,7.93
2023-02-27T20:26:39.080Z,11.25
2023-02-27T20:29:09.636Z,6.75
2023-02-27T20:31:38.490Z,7.87
2023-02-27T20:34:06.481Z,6.18
2023-02-27T20:36:34.914Z,8.43
2023-02-27T20:39:02.139Z,8.37
2023-02-27T20:41:29.831Z,9.57
2023-02-27T20:43:57.153Z,17.92
2023-02-27T20:46:27.095Z,12.50
2023-02-27T20:48:59.415Z,9.20
2023-02-27T20:51:31.912Z,8.63
2023-02-27T20:54:00.121Z,8.05
2023-02-27T20:56:36.426Z,9.18
2023-02-27T20:59:06.074Z,6.55
2023-02-27T21:01:33.651Z,7.60
2023-02-27T21:04:03.435Z,8.27
2023-02-27T21:06:30.313Z,5.43
2023-02-27T21:08:57.216Z,8.75
2023-02-27T21:11:29.873Z,5.72
2023-02-27T21:13:58.963Z,9.65
2023-02-27T21:16:26.093Z,8.68
2023-02-27T21:18:54.685Z,6.85
2023-02-27T21:21:25.590Z,6.00
2023-02-27T21:23:52.503Z,7.05
2023-02-27T21:26:25.513Z,6.03
2023-02-27T21:29:05.885Z,11.32
2023-02-27T21:31:34.461Z,9.57
2023-02-27T21:34:03.633Z,7.90
2023-02-27T21:36:33.937Z,13.35
2023-02-27T21:39:03.509Z,6.53
2023-02-27T21:41:30.943Z,7.50
2023-02-27T21:44:02.126Z,8.27
2023-02-27T21:46:29.422Z,5.78
2023-02-27T21:48:56.532Z,7.60
2023-02-27T21:51:38.277Z,8.87
2023-02-27T21:54:07.517Z,7.53
2023-02-27T21:56:34.276Z,7.80
2023-02-27T21:59:01.959Z,7.82
2023-02-27T22:01:29.559Z,8.40
2023-02-27T22:03:57.271Z,7.32
2023-02-27T22:06:26.543Z,10.45
2023-02-27T22:08:57.860Z,9.98
2023-02-27T22:11:26.840Z,8.60
2023-02-27T22:13:53.833Z,7.53
2023-02-27T22:16:21.556Z,6.63
2023-02-27T22:18:48.759Z,7.13
2023-02-27T22:21:19.158Z,9.03
2023-02-27T22:23:46.833Z,13.32
2023-02-27T22:26:23.502Z,9.50
2023-02-27T22:28:51.608Z,5.45
2023-02-27T22:31:21.565Z,5.70
2023-02-27T22:33:51.112Z,12.35
2023-02-27T22:36:25.893Z,6.47
2023-02-27T22:38:53.519Z,4.75
2023-02-27T22:41:23.253Z,6.65
2023-02-27T22:43:50.310Z,6.50
2023-02-27T22:46:24.760Z,5.72
2023-02-27T22:48:59.875Z,4.15
2023-02-27T22:51:27.417Z,4.53
2023-02-27T22:53:56.606Z,4.20
2023-02-27T22:56:23.601Z,5.28
2023-02-27T22:58:50.583Z,5.25
2023-02-27T23:01:25.264Z,5.57
2023-02-27T23:03:53.932Z,5.38
2023-02-27T23:06:23.601Z,5.57
2023-02-27T23:08:50.589Z,6.32
2023-02-27T23:11:19.113Z,5.50
2023-02-27T23:13:46.069Z,5.13
2023-02-27T23:16:13.207Z,5.63
2023-02-27T23:18:52.059Z,5.38
2023-02-27T23:21:21.523Z,4.50
2023-02-27T23:23:48.371Z,5.00
2023-02-27T23:26:15.533Z,4.88
2023-02-27T23:28:42.457Z,5.10
2023-02-27T23:31:09.857Z,5.57
2023-02-27T23:33:37.037Z,4.70
2023-02-27T23:36:04.107Z,4.90
2023-02-27T23:38:30.972Z,6.17
2023-02-27T23:40:58.017Z,5.80
2023-02-27T23:43:24.947Z,5.53
2023-02-27T23:45:51.748Z,4.60
2023-02-27T23:48:18.553Z,6.18
2023-02-27T23:50:45.316Z,5.63
2023-02-27T23:53:13.213Z,5.43
2023-02-27T23:55:41.030Z,5.38
2023-02-27T23:58:09.824Z,3.95
